sensor_id;sensor_type;location;lat;lon;timestamp;temperature;humidity
46752;DHT22;32497;48.936;9.270;2023-10-13T00:03:16;17.00;78.00
46752;DHT22;32497;48.936;9.270;2023-10-13T00:08:17;17.00;78.50
46752;DHT22;32497;48.936;9.270;2023-10-13T00:13:18;16.90;78.50
46752;DHT22;32497;48.936;9.270;2023-10-13T00:18:20;16.70;78.90
46752;DHT22;32497;48.936;9.270;2023-10-13T00:23:22;16.60;78.60
46752;DHT22;32497;48.936;9.270;2023-10-13T00:28:24;16.50;79.30
46752;DHT22;32497;48.936;9.270;2023-10-13T00:33:26;16.30;79.90
46752;DHT22;32497;48.936;9.270;2023-10-13T00:38:27;16.10;80.40
46752;DHT22;32497;48.936;9.270;2023-10-13T00:43:29;16.10;79.10
46752;DHT22;32497;48.936;9.270;2023-10-13T00:48:34;16.20;76.90
46752;DHT22;32497;48.936;9.270;2023-10-13T00:53:37;16.20;74.80
46752;DHT22;32497;48.936;9.270;2023-10-13T00:58:39;16.40;72.70
46752;DHT22;32497;48.936;9.270;2023-10-13T01:03:42;16.50;70.80
46752;DHT22;32497;48.936;9.270;2023-10-13T01:08:45;16.60;70.50
46752;DHT22;32497;48.936;9.270;2023-10-13T01:13:47;16.50;72.30
46752;DHT22;32497;48.936;9.270;2023-10-13T01:18:49;16.30;72.80
46752;DHT22;32497;48.936;9.270;2023-10-13T01:23:53;16.20;73.00
46752;DHT22;32497;48.936;9.270;2023-10-13T01:28:57;16.20;72.40
46752;DHT22;32497;48.936;9.270;2023-10-13T01:33:58;16.10;72.70
46752;DHT22;32497;48.936;9.270;2023-10-13T01:39:01;16.00;72.40
46752;DHT22;32497;48.936;9.270;2023-10-13T01:44:02;16.10;70.60
46752;DHT22;32497;48.936;9.270;2023-10-13T01:49:03;16.10;71.00
46752;DHT22;32497;48.936;9.270;2023-10-13T01:54:06;16.00;70.10
46752;DHT22;32497;48.936;9.270;2023-10-13T01:59:07;16.00;69.80
46752;DHT22;32497;48.936;9.270;2023-10-13T02:04:09;15.90;70.70
46752;DHT22;32497;48.936;9.270;2023-10-13T02:09:12;15.90;69.90
46752;DHT22;32497;48.936;9.270;2023-10-13T02:14:13;15.80;70.20
46752;DHT22;32497;48.936;9.270;2023-10-13T02:19:14;15.70;69.90
46752;DHT22;32497;48.936;9.270;2023-10-13T02:24:17;15.70;69.70
46752;DHT22;32497;48.936;9.270;2023-10-13T02:29:18;15.70;69.60
46752;DHT22;32497;48.936;9.270;2023-10-13T02:34:19;15.60;69.90
46752;DHT22;32497;48.936;9.270;2023-10-13T02:39:21;15.60;69.70
46752;DHT22;32497;48.936;9.270;2023-10-13T02:44:22;15.50;70.20
46752;DHT22;32497;48.936;9.270;2023-10-13T02:49:26;15.40;70.10
46752;DHT22;32497;48.936;9.270;2023-10-13T02:54:29;15.40;69.80
46752;DHT22;32497;48.936;9.270;2023-10-13T02:59:31;15.40;69.50
46752;DHT22;32497;48.936;9.270;2023-10-13T03:04:32;15.50;68.90
46752;DHT22;32497;48.936;9.270;2023-10-13T03:09:35;15.50;68.70
46752;DHT22;32497;48.936;9.270;2023-10-13T03:14:36;15.30;69.00
46752;DHT22;32497;48.936;9.270;2023-10-13T03:19:37;15.20;69.50
46752;DHT22;32497;48.936;9.270;2023-10-13T03:24:40;15.20;70.00
46752;DHT22;32497;48.936;9.270;2023-10-13T03:29:41;15.10;70.00
46752;DHT22;32497;48.936;9.270;2023-10-13T03:34:43;15.10;69.70
46752;DHT22;32497;48.936;9.270;2023-10-13T03:39:45;15.10;70.00
46752;DHT22;32497;48.936;9.270;2023-10-13T03:44:46;15.10;69.80
46752;DHT22;32497;48.936;9.270;2023-10-13T03:49:47;15.10;69.40
46752;DHT22;32497;48.936;9.270;2023-10-13T03:54:50;15.20;68.50
46752;DHT22;32497;48.936;9.270;2023-10-13T03:59:51;15.20;68.70
46752;DHT22;32497;48.936;9.270;2023-10-13T04:04:52;15.20;69.40
46752;DHT22;32497;48.936;9.270;2023-10-13T04:09:54;15.20;68.60
46752;DHT22;32497;48.936;9.270;2023-10-13T04:14:55;15.10;69.00
46752;DHT22;32497;48.936;9.270;2023-10-13T04:19:58;15.10;69.70
46752;DHT22;32497;48.936;9.270;2023-10-13T04:25:00;15.00;69.30
46752;DHT22;32497;48.936;9.270;2023-10-13T04:30:02;15.00;69.10
46752;DHT22;32497;48.936;9.270;2023-10-13T04:35:04;15.10;68.70
46752;DHT22;32497;48.936;9.270;2023-10-13T04:40:08;15.10;69.10
46752;DHT22;32497;48.936;9.270;2023-10-13T04:45:10;15.10;68.80
46752;DHT22;32497;48.936;9.270;2023-10-13T04:50:11;15.10;68.40
46752;DHT22;32497;48.936;9.270;2023-10-13T04:55:14;15.10;67.70
46752;DHT22;32497;48.936;9.270;2023-10-13T05:00:15;15.10;68.00
46752;DHT22;32497;48.936;9.270;2023-10-13T05:05:16;15.10;67.80
46752;DHT22;32497;48.936;9.270;2023-10-13T05:10:19;15.20;67.60
46752;DHT22;32497;48.936;9.270;2023-10-13T05:15:20;15.20;66.90
46752;DHT22;32497;48.936;9.270;2023-10-13T05:20:21;15.30;67.00
46752;DHT22;32497;48.936;9.270;2023-10-13T05:25:23;15.20;67.10
46752;DHT22;32497;48.936;9.270;2023-10-13T05:30:24;15.20;67.30
46752;DHT22;32497;48.936;9.270;2023-10-13T05:35:26;15.10;68.00
46752;DHT22;32497;48.936;9.270;2023-10-13T05:40:28;15.10;68.00
46752;DHT22;32497;48.936;9.270;2023-10-13T05:45:30;15.10;67.80
46752;DHT22;32497;48.936;9.270;2023-10-13T05:50:31;15.10;67.60
46752;DHT22;32497;48.936;9.270;2023-10-13T05:55:33;15.20;67.90
46752;DHT22;32497;48.936;9.270;2023-10-13T06:00:39;15.40;67.00
46752;DHT22;32497;48.936;9.270;2023-10-13T06:05:40;15.70;66.70
46752;DHT22;32497;48.936;9.270;2023-10-13T06:10:43;15.90;66.00
46752;DHT22;32497;48.936;9.270;2023-10-13T06:15:44;16.00;65.40
46752;DHT22;32497;48.936;9.270;2023-10-13T06:20:46;16.10;65.70
46752;DHT22;32497;48.936;9.270;2023-10-13T06:25:52;16.10;65.40
46752;DHT22;32497;48.936;9.270;2023-10-13T06:30:54;16.30;65.40
46752;DHT22;32497;48.936;9.270;2023-10-13T06:35:56;16.40;65.10
46752;DHT22;32497;48.936;9.270;2023-10-13T06:40:59;16.50;64.90
46752;DHT22;32497;48.936;9.270;2023-10-13T06:46:00;16.60;65.10
46752;DHT22;32497;48.936;9.270;2023-10-13T06:51:02;16.60;65.20
46752;DHT22;32497;48.936;9.270;2023-10-13T06:56:07;16.60;64.30
46752;DHT22;32497;48.936;9.270;2023-10-13T07:01:08;16.80;64.10
46752;DHT22;32497;48.936;9.270;2023-10-13T07:06:09;17.00;63.30
46752;DHT22;32497;48.936;9.270;2023-10-13T07:11:12;17.20;63.00
46752;DHT22;32497;48.936;9.270;2023-10-13T07:16:13;17.20;62.80
46752;DHT22;32497;48.936;9.270;2023-10-13T07:21:14;17.30;62.30
46752;DHT22;32497;48.936;9.270;2023-10-13T07:26:16;17.50;61.70
46752;DHT22;32497;48.936;9.270;2023-10-13T07:31:18;17.60;61.90
46752;DHT22;32497;48.936;9.270;2023-10-13T07:36:19;17.70;61.30
46752;DHT22;32497;48.936;9.270;2023-10-13T07:41:21;17.90;61.00
46752;DHT22;32497;48.936;9.270;2023-10-13T07:46:22;18.20;59.60
46752;DHT22;32497;48.936;9.270;2023-10-13T07:51:23;18.40;58.70
46752;DHT22;32497;48.936;9.270;2023-10-13T07:56:26;18.70;57.40
46752;DHT22;32497;48.936;9.270;2023-10-13T08:01:28;18.70;56.60
46752;DHT22;32497;48.936;9.270;2023-10-13T08:06:29;19.00;55.70
46752;DHT22;32497;48.936;9.270;2023-10-13T08:11:32;19.10;56.50
46752;DHT22;32497;48.936;9.270;2023-10-13T08:16:33;19.30;55.60
46752;DHT22;32497;48.936;9.270;2023-10-13T08:21:34;19.50;55.60
46752;DHT22;32497;48.936;9.270;2023-10-13T08:26:36;19.70;55.70
46752;DHT22;32497;48.936;9.270;2023-10-13T08:31:37;19.80;55.30
46752;DHT22;32497;48.936;9.270;2023-10-13T08:36:38;20.00;54.70
46752;DHT22;32497;48.936;9.270;2023-10-13T08:41:41;20.30;54.80
46752;DHT22;32497;48.936;9.270;2023-10-13T08:46:44;20.70;51.80
46752;DHT22;32497;48.936;9.270;2023-10-13T08:51:45;20.80;51.50
46752;DHT22;32497;48.936;9.270;2023-10-13T08:56:49;21.10;49.30
46752;DHT22;32497;48.936;9.270;2023-10-13T09:01:50;21.40;47.70
46752;DHT22;32497;48.936;9.270;2023-10-13T09:06:53;21.60;46.30
46752;DHT22;32497;48.936;9.270;2023-10-13T09:11:56;21.80;45.40
46752;DHT22;32497;48.936;9.270;2023-10-13T09:17:02;22.20;44.60
46752;DHT22;32497;48.936;9.270;2023-10-13T09:22:03;22.50;44.20
46752;DHT22;32497;48.936;9.270;2023-10-13T09:27:05;22.50;44.10
46752;DHT22;32497;48.936;9.270;2023-10-13T09:32:06;22.60;43.60
46752;DHT22;32497;48.936;9.270;2023-10-13T09:37:08;22.90;43.30
46752;DHT22;32497;48.936;9.270;2023-10-13T09:42:11;23.10;42.90
46752;DHT22;32497;48.936;9.270;2023-10-13T09:47:12;23.20;42.50
46752;DHT22;32497;48.936;9.270;2023-10-13T09:52:16;23.40;42.50
46752;DHT22;32497;48.936;9.270;2023-10-13T09:57:20;23.70;42.40
46752;DHT22;32497;48.936;9.270;2023-10-13T10:02:22;23.80;42.40
46752;DHT22;32497;48.936;9.270;2023-10-13T10:07:24;24.50;38.60
46752;DHT22;32497;48.936;9.270;2023-10-13T10:12:35;24.80;38.20
46752;DHT22;32497;48.936;9.270;2023-10-13T10:17:41;25.10;37.30
46752;DHT22;32497;48.936;9.270;2023-10-13T10:22:42;25.40;36.50
46752;DHT22;32497;48.936;9.270;2023-10-13T10:27:55;25.50;35.20
46752;DHT22;32497;48.936;9.270;2023-10-13T10:32:57;25.70;34.90
46752;DHT22;32497;48.936;9.270;2023-10-13T10:38:07;25.90;34.80
46752;DHT22;32497;48.936;9.270;2023-10-13T10:43:09;25.80;34.30
46752;DHT22;32497;48.936;9.270;2023-10-13T10:48:11;25.40;35.00
46752;DHT22;32497;48.936;9.270;2023-10-13T10:53:13;25.30;36.10
46752;DHT22;32497;48.936;9.270;2023-10-13T10:58:15;25.80;35.10
46752;DHT22;32497;48.936;9.270;2023-10-13T11:03:16;26.20;33.60
46752;DHT22;32497;48.936;9.270;2023-10-13T11:08:22;25.90;33.30
46752;DHT22;32497;48.936;9.270;2023-10-13T11:13:24;25.90;35.00
46752;DHT22;32497;48.936;9.270;2023-10-13T11:18:31;25.90;33.80
46752;DHT22;32497;48.936;9.270;2023-10-13T11:23:32;26.00;35.00
46752;DHT22;32497;48.936;9.270;2023-10-13T11:28:35;26.20;35.50
46752;DHT22;32497;48.936;9.270;2023-10-13T11:33:36;26.50;33.60
46752;DHT22;32497;48.936;9.270;2023-10-13T11:38:44;26.80;34.60
46752;DHT22;32497;48.936;9.270;2023-10-13T11:43:48;26.90;33.20
46752;DHT22;32497;48.936;9.270;2023-10-13T11:48:52;27.20;31.60
46752;DHT22;32497;48.936;9.270;2023-10-13T11:53:53;27.20;31.20
46752;DHT22;32497;48.936;9.270;2023-10-13T11:58:55;27.50;30.50
46752;DHT22;32497;48.936;9.270;2023-10-13T12:03:56;27.70;31.50
46752;DHT22;32497;48.936;9.270;2023-10-13T12:08:58;27.90;31.20
46752;DHT22;32497;48.936;9.270;2023-10-13T12:14:00;27.90;30.40
46752;DHT22;32497;48.936;9.270;2023-10-13T12:19:01;27.90;29.50
46752;DHT22;32497;48.936;9.270;2023-10-13T12:24:03;29.50;27.40
46752;DHT22;32497;48.936;9.270;2023-10-13T12:29:05;29.70;26.70
46752;DHT22;32497;48.936;9.270;2023-10-13T12:34:07;30.20;26.40
46752;DHT22;32497;48.936;9.270;2023-10-13T12:39:08;30.70;25.40
46752;DHT22;32497;48.936;9.270;2023-10-13T12:44:10;30.90;25.80
46752;DHT22;32497;48.936;9.270;2023-10-13T12:49:11;30.90;25.80
46752;DHT22;32497;48.936;9.270;2023-10-13T12:54:12;29.70;27.90
46752;DHT22;32497;48.936;9.270;2023-10-13T12:59:15;30.70;26.90
46752;DHT22;32497;48.936;9.270;2023-10-13T13:04:16;28.60;28.00
46752;DHT22;32497;48.936;9.270;2023-10-13T13:09:17;28.20;29.10
46752;DHT22;32497;48.936;9.270;2023-10-13T13:14:20;28.30;30.00
46752;DHT22;32497;48.936;9.270;2023-10-13T13:19:21;29.20;28.60
46752;DHT22;32497;48.936;9.270;2023-10-13T13:24:22;31.10;25.90
46752;DHT22;32497;48.936;9.270;2023-10-13T13:29:24;31.20;27.00
46752;DHT22;32497;48.936;9.270;2023-10-13T13:34:25;31.50;25.90
46752;DHT22;32497;48.936;9.270;2023-10-13T13:39:27;31.80;25.60
46752;DHT22;32497;48.936;9.270;2023-10-13T13:44:30;31.80;24.80
46752;DHT22;32497;48.936;9.270;2023-10-13T13:49:31;31.30;25.50
46752;DHT22;32497;48.936;9.270;2023-10-13T13:54:32;31.40;25.20
46752;DHT22;32497;48.936;9.270;2023-10-13T13:59:35;32.10;24.30
46752;DHT22;32497;48.936;9.270;2023-10-13T14:04:36;32.00;24.00
46752;DHT22;32497;48.936;9.270;2023-10-13T14:09:37;29.90;26.00
46752;DHT22;32497;48.936;9.270;2023-10-13T14:14:40;29.30;27.40
46752;DHT22;32497;48.936;9.270;2023-10-13T14:19:41;29.60;26.50
46752;DHT22;32497;48.936;9.270;2023-10-13T14:24:42;30.10;26.80
46752;DHT22;32497;48.936;9.270;2023-10-13T14:29:44;30.20;26.40
46752;DHT22;32497;48.936;9.270;2023-10-13T14:34:46;29.70;26.00
46752;DHT22;32497;48.936;9.270;2023-10-13T14:39:47;29.40;26.60
46752;DHT22;32497;48.936;9.270;2023-10-13T14:44:50;29.20;27.10
46752;DHT22;32497;48.936;9.270;2023-10-13T14:49:52;29.00;27.70
46752;DHT22;32497;48.936;9.270;2023-10-13T14:54:54;29.00;27.70
46752;DHT22;32497;48.936;9.270;2023-10-13T14:59:56;28.70;29.10
46752;DHT22;32497;48.936;9.270;2023-10-13T15:04:57;28.50;28.50
46752;DHT22;32497;48.936;9.270;2023-10-13T15:09:59;28.40;28.50
46752;DHT22;32497;48.936;9.270;2023-10-13T15:15:01;28.20;28.90
46752;DHT22;32497;48.936;9.270;2023-10-13T15:20:02;27.70;30.50
46752;DHT22;32497;48.936;9.270;2023-10-13T15:25:08;27.30;31.70
46752;DHT22;32497;48.936;9.270;2023-10-13T15:30:11;27.00;30.90
46752;DHT22;32497;48.936;9.270;2023-10-13T15:35:12;26.90;30.90
46752;DHT22;32497;48.936;9.270;2023-10-13T15:40:14;26.70;30.80
46752;DHT22;32497;48.936;9.270;2023-10-13T15:45:16;26.50;30.70
46752;DHT22;32497;48.936;9.270;2023-10-13T15:50:18;26.30;30.70
46752;DHT22;32497;48.936;9.270;2023-10-13T15:55:19;26.20;31.00
46752;DHT22;32497;48.936;9.270;2023-10-13T16:00:21;26.20;30.80
46752;DHT22;32497;48.936;9.270;2023-10-13T16:05:23;26.00;30.90
46752;DHT22;32497;48.936;9.270;2023-10-13T16:10:24;25.80;30.80
46752;DHT22;32497;48.936;9.270;2023-10-13T16:15:27;25.70;30.70
46752;DHT22;32497;48.936;9.270;2023-10-13T16:20:28;25.50;30.60
46752;DHT22;32497;48.936;9.270;2023-10-13T16:25:29;25.30;30.80
46752;DHT22;32497;48.936;9.270;2023-10-13T16:30:31;25.10;30.80
46752;DHT22;32497;48.936;9.270;2023-10-13T16:35:33;24.80;30.60
46752;DHT22;32497;48.936;9.270;2023-10-13T16:40:34;24.60;31.40
46752;DHT22;32497;48.936;9.270;2023-10-13T16:45:37;24.30;31.40
46752;DHT22;32497;48.936;9.270;2023-10-13T16:50:38;24.30;30.90
46752;DHT22;32497;48.936;9.270;2023-10-13T16:55:40;24.30;30.10
46752;DHT22;32497;48.936;9.270;2023-10-13T17:00:42;24.30;30.00
46752;DHT22;32497;48.936;9.270;2023-10-13T17:05:45;24.20;30.40
46752;DHT22;32497;48.936;9.270;2023-10-13T17:10:46;23.80;31.70
46752;DHT22;32497;48.936;9.270;2023-10-13T17:15:49;23.50;31.60
46752;DHT22;32497;48.936;9.270;2023-10-13T17:20:50;23.60;31.00
46752;DHT22;32497;48.936;9.270;2023-10-13T17:25:51;23.60;31.00
46752;DHT22;32497;48.936;9.270;2023-10-13T17:30:53;23.30;31.40
46752;DHT22;32497;48.936;9.270;2023-10-13T17:35:54;23.20;32.30
46752;DHT22;32497;48.936;9.270;2023-10-13T17:40:56;22.90;33.40
46752;DHT22;32497;48.936;9.270;2023-10-13T17:45:58;22.40;34.70
46752;DHT22;32497;48.936;9.270;2023-10-13T17:50:59;22.00;35.30
46752;DHT22;32497;48.936;9.270;2023-10-13T17:56:03;21.70;36.00
46752;DHT22;32497;48.936;9.270;2023-10-13T18:01:06;21.70;36.30
46752;DHT22;32497;48.936;9.270;2023-10-13T18:06:07;21.50;36.40
46752;DHT22;32497;48.936;9.270;2023-10-13T18:11:09;21.70;37.30
46752;DHT22;32497;48.936;9.270;2023-10-13T18:16:15;21.30;38.00
46752;DHT22;32497;48.936;9.270;2023-10-13T18:21:16;21.00;39.00
46752;DHT22;32497;48.936;9.270;2023-10-13T18:26:18;21.00;38.20
46752;DHT22;32497;48.936;9.270;2023-10-13T18:31:20;21.20;37.90
46752;DHT22;32497;48.936;9.270;2023-10-13T18:36:22;21.00;38.50
46752;DHT22;32497;48.936;9.270;2023-10-13T18:41:23;20.80;39.40
46752;DHT22;32497;48.936;9.270;2023-10-13T18:46:25;20.50;40.00
46752;DHT22;32497;48.936;9.270;2023-10-13T18:51:26;20.50;40.60
46752;DHT22;32497;48.936;9.270;2023-10-13T18:56:27;20.40;41.70
46752;DHT22;32497;48.936;9.270;2023-10-13T19:01:30;20.20;43.10
46752;DHT22;32497;48.936;9.270;2023-10-13T19:06:33;20.30;43.90
46752;DHT22;32497;48.936;9.270;2023-10-13T19:11:36;20.20;44.60
46752;DHT22;32497;48.936;9.270;2023-10-13T19:16:41;20.30;45.00
46752;DHT22;32497;48.936;9.270;2023-10-13T19:21:42;20.20;45.50
46752;DHT22;32497;48.936;9.270;2023-10-13T19:26:43;20.50;45.10
46752;DHT22;32497;48.936;9.270;2023-10-13T19:31:45;20.50;45.10
46752;DHT22;32497;48.936;9.270;2023-10-13T19:36:46;20.50;45.50
46752;DHT22;32497;48.936;9.270;2023-10-13T19:41:47;20.40;46.30
46752;DHT22;32497;48.936;9.270;2023-10-13T19:46:50;20.50;47.30
46752;DHT22;32497;48.936;9.270;2023-10-13T19:51:51;20.40;45.90
46752;DHT22;32497;48.936;9.270;2023-10-13T19:56:52;20.40;46.40
46752;DHT22;32497;48.936;9.270;2023-10-13T20:01:54;20.40;46.80
46752;DHT22;32497;48.936;9.270;2023-10-13T20:06:56;20.40;46.50
46752;DHT22;32497;48.936;9.270;2023-10-13T20:11:57;20.50;45.20
46752;DHT22;32497;48.936;9.270;2023-10-13T20:16:59;20.70;43.90
46752;DHT22;32497;48.936;9.270;2023-10-13T20:22:00;20.80;43.60
46752;DHT22;32497;48.936;9.270;2023-10-13T20:27:01;20.90;42.80
46752;DHT22;32497;48.936;9.270;2023-10-13T20:32:04;20.90;42.30
46752;DHT22;32497;48.936;9.270;2023-10-13T20:37:05;20.90;42.00
46752;DHT22;32497;48.936;9.270;2023-10-13T20:42:06;20.90;41.80
46752;DHT22;32497;48.936;9.270;2023-10-13T20:47:09;20.80;42.00
46752;DHT22;32497;48.936;9.270;2023-10-13T20:52:10;20.70;41.60
46752;DHT22;32497;48.936;9.270;2023-10-13T20:57:11;20.70;41.40
46752;DHT22;32497;48.936;9.270;2023-10-13T21:02:13;20.70;40.60
46752;DHT22;32497;48.936;9.270;2023-10-13T21:07:14;20.80;40.10
46752;DHT22;32497;48.936;9.270;2023-10-13T21:12:15;20.80;39.50
46752;DHT22;32497;48.936;9.270;2023-10-13T21:17:18;20.80;39.50
46752;DHT22;32497;48.936;9.270;2023-10-13T21:22:19;20.60;40.20
46752;DHT22;32497;48.936;9.270;2023-10-13T21:27:20;20.50;40.60
46752;DHT22;32497;48.936;9.270;2023-10-13T21:32:22;20.60;39.70
46752;DHT22;32497;48.936;9.270;2023-10-13T21:37:23;20.60;39.80
46752;DHT22;32497;48.936;9.270;2023-10-13T21:42:25;20.50;38.80
46752;DHT22;32497;48.936;9.270;2023-10-13T21:47:27;20.40;39.20
46752;DHT22;32497;48.936;9.270;2023-10-13T21:52:28;20.30;39.00
46752;DHT22;32497;48.936;9.270;2023-10-13T21:57:29;20.30;38.70
46752;DHT22;32497;48.936;9.270;2023-10-13T22:02:32;20.40;38.60
46752;DHT22;32497;48.936;9.270;2023-10-13T22:07:33;20.60;37.60
46752;DHT22;32497;48.936;9.270;2023-10-13T22:12:34;20.70;37.10
46752;DHT22;32497;48.936;9.270;2023-10-13T22:17:36;20.80;37.00
46752;DHT22;32497;48.936;9.270;2023-10-13T22:22:38;20.90;36.80
46752;DHT22;32497;48.936;9.270;2023-10-13T22:27:39;21.20;36.90
46752;DHT22;32497;48.936;9.270;2023-10-13T22:32:41;21.60;36.20
46752;DHT22;32497;48.936;9.270;2023-10-13T22:37:42;22.50;34.50
46752;DHT22;32497;48.936;9.270;2023-10-13T22:42:44;22.70;34.20
46752;DHT22;32497;48.936;9.270;2023-10-13T22:47:48;22.60;34.40
46752;DHT22;32497;48.936;9.270;2023-10-13T22:52:49;22.70;34.50
46752;DHT22;32497;48.936;9.270;2023-10-13T22:57:51;22.60;34.80
46752;DHT22;32497;48.936;9.270;2023-10-13T23:02:54;22.50;35.00
46752;DHT22;32497;48.936;9.270;2023-10-13T23:07:56;22.50;35.40
46752;DHT22;32497;48.936;9.270;2023-10-13T23:12:57;22.50;35.60
46752;DHT22;32497;48.936;9.270;2023-10-13T23:17:59;22.40;35.80
46752;DHT22;32497;48.936;9.270;2023-10-13T23:23:00;22.50;36.10
46752;DHT22;32497;48.936;9.270;2023-10-13T23:28:01;22.40;36.60
46752;DHT22;32497;48.936;9.270;2023-10-13T23:33:06;22.30;36.90
46752;DHT22;32497;48.936;9.270;2023-10-13T23:38:07;22.20;37.20
46752;DHT22;32497;48.936;9.270;2023-10-13T23:43:08;22.20;38.00
46752;DHT22;32497;48.936;9.270;2023-10-13T23:48:11;22.10;38.50
46752;DHT22;32497;48.936;9.270;2023-10-13T23:53:12;22.10;38.40
46752;DHT22;32497;48.936;9.270;2023-10-13T23:58:13;22.10;39.10
